sensor_id;sensor_type;location;lat;lon;timestamp;temperature;humidity
55648;DHT22;45266;48.756;9.246;2023-04-30T00:00:22;11.90;99.90
55648;DHT22;45266;48.756;9.246;2023-04-30T00:01:24;11.90;99.90
55648;DHT22;45266;48.756;9.246;2023-04-30T00:02:26;11.80;99.90
55648;DHT22;45266;48.756;9.246;2023-04-30T00:03:28;11.90;99.90
55648;DHT22;45266;48.756;9.246;2023-04-30T00:04:30;11.90;99.90
55648;DHT22;45266;48.756;9.246;2023-04-30T00:05:32;11.90;99.90
55648;DHT22;45266;48.756;9.246;2023-04-30T00:06:34;11.80;99.90
55648;DHT22;45266;48.756;9.246;2023-04-30T00:07:35;11.90;99.90
55648;DHT22;45266;48.756;9.246;2023-04-30T00:08:37;11.90;99.90
55648;DHT22;45266;48.756;9.246;2023-04-30T00:09:39;11.90;99.90
55648;DHT22;45266;48.756;9.246;2023-04-30T00:10:41;11.80;99.90
55648;DHT22;45266;48.756;9.246;2023-04-30T00:11:43;11.70;99.90
55648;DHT22;45266;48.756;9.246;2023-04-30T00:12:44;11.90;99.90
55648;DHT22;45266;48.756;9.246;2023-04-30T00:13:46;11.80;99.90
55648;DHT22;45266;48.756;9.246;2023-04-30T00:14:48;11.90;99.90
55648;DHT22;45266;48.756;9.246;2023-04-30T00:15:50;11.80;99.90
55648;DHT22;45266;48.756;9.246;2023-04-30T00:16:52;11.80;99.90
55648;DHT22;45266;48.756;9.246;2023-04-30T00:17:53;11.70;99.90
55648;DHT22;45266;48.756;9.246;2023-04-30T00:18:55;11.80;99.90
55648;DHT22;45266;48.756;9.246;2023-04-30T00:19:57;11.80;99.90
55648;DHT22;45266;48.756;9.246;2023-04-30T00:20:58;11.80;99.90
55648;DHT22;45266;48.756;9.246;2023-04-30T00:22:00;11.70;99.90
55648;DHT22;45266;48.756;9.246;2023-04-30T00:23:02;11.80;99.90
55648;DHT22;45266;48.756;9.246;2023-04-30T00:24:04;11.90;99.90
55648;DHT22;45266;48.756;9.246;2023-04-30T00:25:06;11.80;99.90
55648;DHT22;45266;48.756;9.246;2023-04-30T00:26:08;11.80;99.90
55648;DHT22;45266;48.756;9.246;2023-04-30T00:27:10;11.70;99.90
55648;DHT22;45266;48.756;9.246;2023-04-30T00:28:11;11.80;99.90
55648;DHT22;45266;48.756;9.246;2023-04-30T00:29:13;11.80;99.90
55648;DHT22;45266;48.756;9.246;2023-04-30T00:30:15;11.80;99.90
55648;DHT22;45266;48.756;9.246;2023-04-30T00:31:17;11.80;99.90
55648;DHT22;45266;48.756;9.246;2023-04-30T00:32:19;11.80;99.90
55648;DHT22;45266;48.756;9.246;2023-04-30T00:33:20;11.70;99.90
55648;DHT22;45266;48.756;9.246;2023-04-30T00:34:22;11.70;99.90
55648;DHT22;45266;48.756;9.246;2023-04-30T00:35:24;11.70;99.90
55648;DHT22;45266;48.756;9.246;2023-04-30T00:36:26;11.70;99.90
55648;DHT22;45266;48.756;9.246;2023-04-30T00:37:27;11.60;99.90
55648;DHT22;45266;48.756;9.246;2023-04-30T00:38:29;11.60;99.90
55648;DHT22;45266;48.756;9.246;2023-04-30T00:39:31;11.70;99.90
55648;DHT22;45266;48.756;9.246;2023-04-30T00:40:34;11.60;99.90
55648;DHT22;45266;48.756;9.246;2023-04-30T00:41:36;11.60;99.90
55648;DHT22;45266;48.756;9.246;2023-04-30T00:42:39;11.50;99.90
55648;DHT22;45266;48.756;9.246;2023-04-30T00:43:40;11.50;99.90
55648;DHT22;45266;48.756;9.246;2023-04-30T00:44:42;11.50;99.90
55648;DHT22;45266;48.756;9.246;2023-04-30T00:45:44;11.50;99.90
55648;DHT22;45266;48.756;9.246;2023-04-30T00:46:46;11.40;99.90
55648;DHT22;45266;48.756;9.246;2023-04-30T00:47:48;11.40;99.90
55648;DHT22;45266;48.756;9.246;2023-04-30T00:48:50;11.40;99.90
55648;DHT22;45266;48.756;9.246;2023-04-30T00:49:52;11.30;99.90
55648;DHT22;45266;48.756;9.246;2023-04-30T00:50:55;11.40;99.90
55648;DHT22;45266;48.756;9.246;2023-04-30T00:51:57;11.30;99.90
55648;DHT22;45266;48.756;9.246;2023-04-30T00:52:58;11.30;99.90
55648;DHT22;45266;48.756;9.246;2023-04-30T00:54:01;11.30;99.90
55648;DHT22;45266;48.756;9.246;2023-04-30T00:55:06;11.30;99.90
55648;DHT22;45266;48.756;9.246;2023-04-30T00:56:08;11.30;99.90
55648;DHT22;45266;48.756;9.246;2023-04-30T00:57:11;11.30;99.90
55648;DHT22;45266;48.756;9.246;2023-04-30T00:58:16;11.30;99.90
55648;DHT22;45266;48.756;9.246;2023-04-30T00:59:18;11.30;99.90
55648;DHT22;45266;48.756;9.246;2023-04-30T01:00:20;11.30;99.90
55648;DHT22;45266;48.756;9.246;2023-04-30T01:01:24;11.30;99.90
55648;DHT22;45266;48.756;9.246;2023-04-30T01:02:26;11.30;99.90
55648;DHT22;45266;48.756;9.246;2023-04-30T01:03:28;11.30;99.90
55648;DHT22;45266;48.756;9.246;2023-04-30T01:04:30;11.30;99.90
55648;DHT22;45266;48.756;9.246;2023-04-30T01:05:33;11.30;99.90
55648;DHT22;45266;48.756;9.246;2023-04-30T01:06:35;11.30;99.90
55648;DHT22;45266;48.756;9.246;2023-04-30T01:07:38;11.30;99.90
55648;DHT22;45266;48.756;9.246;2023-04-30T01:08:46;11.20;99.90
55648;DHT22;45266;48.756;9.246;2023-04-30T01:09:48;11.20;99.90
55648;DHT22;45266;48.756;9.246;2023-04-30T01:11:21;11.20;99.90
55648;DHT22;45266;48.756;9.246;2023-04-30T01:17:55;11.20;99.90
55648;DHT22;45266;48.756;9.246;2023-04-30T01:19:40;11.20;99.90
55648;DHT22;45266;48.756;9.246;2023-04-30T01:20:49;11.20;99.90
55648;DHT22;45266;48.756;9.246;2023-04-30T01:21:53;11.20;99.90
55648;DHT22;45266;48.756;9.246;2023-04-30T01:24:48;11.20;99.90
55648;DHT22;45266;48.756;9.246;2023-04-30T01:28:52;11.20;99.90
55648;DHT22;45266;48.756;9.246;2023-04-30T01:29:55;11.10;99.90
55648;DHT22;45266;48.756;9.246;2023-04-30T01:30:58;11.20;99.90
55648;DHT22;45266;48.756;9.246;2023-04-30T01:32:00;11.20;99.90
55648;DHT22;45266;48.756;9.246;2023-04-30T01:33:03;11.10;99.90
55648;DHT22;45266;48.756;9.246;2023-04-30T01:34:05;11.00;99.90
55648;DHT22;45266;48.756;9.246;2023-04-30T01:35:07;11.10;99.90
55648;DHT22;45266;48.756;9.246;2023-04-30T01:39:21;11.10;99.90
55648;DHT22;45266;48.756;9.246;2023-04-30T01:40:32;11.10;99.90
55648;DHT22;45266;48.756;9.246;2023-04-30T01:43:07;11.00;99.90
55648;DHT22;45266;48.756;9.246;2023-04-30T01:44:35;11.00;99.90
55648;DHT22;45266;48.756;9.246;2023-04-30T01:48:28;11.00;99.90
55648;DHT22;45266;48.756;9.246;2023-04-30T01:51:15;11.00;99.90
55648;DHT22;45266;48.756;9.246;2023-04-30T01:52:33;10.90;99.90
55648;DHT22;45266;48.756;9.246;2023-04-30T01:53:41;11.00;99.90
55648;DHT22;45266;48.756;9.246;2023-04-30T01:54:55;10.90;99.90
55648;DHT22;45266;48.756;9.246;2023-04-30T01:56:02;10.90;99.90
55648;DHT22;45266;48.756;9.246;2023-04-30T01:57:06;10.90;99.90
55648;DHT22;45266;48.756;9.246;2023-04-30T01:58:11;10.90;99.90
55648;DHT22;45266;48.756;9.246;2023-04-30T01:59:13;10.90;99.90
55648;DHT22;45266;48.756;9.246;2023-04-30T02:00:16;10.90;99.90
55648;DHT22;45266;48.756;9.246;2023-04-30T02:01:28;11.00;99.90
55648;DHT22;45266;48.756;9.246;2023-04-30T02:02:30;10.90;99.90
55648;DHT22;45266;48.756;9.246;2023-04-30T02:03:32;10.90;99.90
55648;DHT22;45266;48.756;9.246;2023-04-30T02:04:34;11.00;99.90
55648;DHT22;45266;48.756;9.246;2023-04-30T02:05:36;11.00;99.90
55648;DHT22;45266;48.756;9.246;2023-04-30T02:06:38;11.00;99.90
55648;DHT22;45266;48.756;9.246;2023-04-30T02:07:44;10.90;99.90
55648;DHT22;45266;48.756;9.246;2023-04-30T02:08:47;10.90;99.90
55648;DHT22;45266;48.756;9.246;2023-04-30T02:09:48;10.90;99.90
55648;DHT22;45266;48.756;9.246;2023-04-30T02:10:50;10.90;99.90
55648;DHT22;45266;48.756;9.246;2023-04-30T02:11:52;10.90;99.90
55648;DHT22;45266;48.756;9.246;2023-04-30T02:12:54;10.90;99.90
55648;DHT22;45266;48.756;9.246;2023-04-30T02:13:56;11.00;99.90
55648;DHT22;45266;48.756;9.246;2023-04-30T02:14:58;11.00;99.90
55648;DHT22;45266;48.756;9.246;2023-04-30T02:15:59;10.90;99.90
55648;DHT22;45266;48.756;9.246;2023-04-30T02:17:01;10.90;99.90
55648;DHT22;45266;48.756;9.246;2023-04-30T02:18:03;10.80;99.90
55648;DHT22;45266;48.756;9.246;2023-04-30T02:19:05;10.80;99.90
55648;DHT22;45266;48.756;9.246;2023-04-30T02:20:07;10.90;99.90
55648;DHT22;45266;48.756;9.246;2023-04-30T02:21:09;10.90;99.90
55648;DHT22;45266;48.756;9.246;2023-04-30T02:22:11;10.90;99.90
55648;DHT22;45266;48.756;9.246;2023-04-30T02:23:14;10.90;99.90
55648;DHT22;45266;48.756;9.246;2023-04-30T02:24:16;10.90;99.90
55648;DHT22;45266;48.756;9.246;2023-04-30T02:25:18;10.80;99.90
55648;DHT22;45266;48.756;9.246;2023-04-30T02:26:19;10.70;99.90
55648;DHT22;45266;48.756;9.246;2023-04-30T02:27:23;10.80;99.90
55648;DHT22;45266;48.756;9.246;2023-04-30T02:28:25;10.80;99.90
55648;DHT22;45266;48.756;9.246;2023-04-30T02:29:27;10.80;99.90
55648;DHT22;45266;48.756;9.246;2023-04-30T02:30:29;10.80;99.90
55648;DHT22;45266;48.756;9.246;2023-04-30T02:31:31;10.80;99.90
55648;DHT22;45266;48.756;9.246;2023-04-30T02:32:32;10.80;99.90
55648;DHT22;45266;48.756;9.246;2023-04-30T02:33:34;10.70;99.90
55648;DHT22;45266;48.756;9.246;2023-04-30T02:34:36;10.70;99.90
55648;DHT22;45266;48.756;9.246;2023-04-30T02:35:39;10.70;99.90
55648;DHT22;45266;48.756;9.246;2023-04-30T02:36:41;10.70;99.90
55648;DHT22;45266;48.756;9.246;2023-04-30T02:37:43;10.60;99.90
55648;DHT22;45266;48.756;9.246;2023-04-30T02:38:45;10.60;99.90
55648;DHT22;45266;48.756;9.246;2023-04-30T02:39:47;10.60;99.90
55648;DHT22;45266;48.756;9.246;2023-04-30T02:40:49;10.60;99.90
55648;DHT22;45266;48.756;9.246;2023-04-30T02:41:51;10.60;99.90
55648;DHT22;45266;48.756;9.246;2023-04-30T02:42:53;10.60;99.90
55648;DHT22;45266;48.756;9.246;2023-04-30T02:43:57;10.60;99.90
55648;DHT22;45266;48.756;9.246;2023-04-30T02:44:58;10.40;99.90
55648;DHT22;45266;48.756;9.246;2023-04-30T02:46:01;10.50;99.90
55648;DHT22;45266;48.756;9.246;2023-04-30T02:47:02;10.60;99.90
55648;DHT22;45266;48.756;9.246;2023-04-30T02:48:04;10.50;99.90
55648;DHT22;45266;48.756;9.246;2023-04-30T02:49:06;10.40;99.90
55648;DHT22;45266;48.756;9.246;2023-04-30T02:50:09;10.40;99.90
55648;DHT22;45266;48.756;9.246;2023-04-30T02:51:10;10.40;99.90
55648;DHT22;45266;48.756;9.246;2023-04-30T02:52:12;10.40;99.90
55648;DHT22;45266;48.756;9.246;2023-04-30T02:53:14;10.40;99.90
55648;DHT22;45266;48.756;9.246;2023-04-30T02:54:16;10.50;99.90
55648;DHT22;45266;48.756;9.246;2023-04-30T02:55:17;10.50;99.90
55648;DHT22;45266;48.756;9.246;2023-04-30T02:56:19;10.50;99.90
55648;DHT22;45266;48.756;9.246;2023-04-30T02:57:21;10.30;99.90
55648;DHT22;45266;48.756;9.246;2023-04-30T02:58:23;10.40;99.90
55648;DHT22;45266;48.756;9.246;2023-04-30T02:59:25;10.40;99.90
55648;DHT22;45266;48.756;9.246;2023-04-30T03:00:27;10.40;99.90
55648;DHT22;45266;48.756;9.246;2023-04-30T03:01:29;10.40;99.90
55648;DHT22;45266;48.756;9.246;2023-04-30T03:02:31;10.40;99.90
55648;DHT22;45266;48.756;9.246;2023-04-30T03:03:33;10.40;99.90
55648;DHT22;45266;48.756;9.246;2023-04-30T03:04:35;10.40;99.90
55648;DHT22;45266;48.756;9.246;2023-04-30T03:05:36;10.40;99.90
55648;DHT22;45266;48.756;9.246;2023-04-30T03:06:38;10.30;99.90
55648;DHT22;45266;48.756;9.246;2023-04-30T03:07:40;10.30;99.90
55648;DHT22;45266;48.756;9.246;2023-04-30T03:08:42;10.30;99.90
55648;DHT22;45266;48.756;9.246;2023-04-30T03:09:45;10.30;99.90
55648;DHT22;45266;48.756;9.246;2023-04-30T03:10:47;10.30;99.90
55648;DHT22;45266;48.756;9.246;2023-04-30T03:11:49;10.30;99.90
55648;DHT22;45266;48.756;9.246;2023-04-30T03:12:51;10.20;99.90
55648;DHT22;45266;48.756;9.246;2023-04-30T03:13:54;10.30;99.90
55648;DHT22;45266;48.756;9.246;2023-04-30T03:14:56;10.30;99.90
55648;DHT22;45266;48.756;9.246;2023-04-30T03:16:02;10.20;99.90
55648;DHT22;45266;48.756;9.246;2023-04-30T03:17:07;10.30;99.90
55648;DHT22;45266;48.756;9.246;2023-04-30T03:18:09;10.30;99.90
55648;DHT22;45266;48.756;9.246;2023-04-30T03:19:11;10.40;99.90
55648;DHT22;45266;48.756;9.246;2023-04-30T03:20:13;10.20;99.90
55648;DHT22;45266;48.756;9.246;2023-04-30T03:21:15;10.10;99.90
55648;DHT22;45266;48.756;9.246;2023-04-30T03:22:17;10.20;99.90
55648;DHT22;45266;48.756;9.246;2023-04-30T03:23:26;10.20;99.90
55648;DHT22;45266;48.756;9.246;2023-04-30T03:24:28;10.10;99.90
55648;DHT22;45266;48.756;9.246;2023-04-30T03:25:30;10.10;99.90
55648;DHT22;45266;48.756;9.246;2023-04-30T03:26:32;10.10;99.90
55648;DHT22;45266;48.756;9.246;2023-04-30T03:27:34;10.10;99.90
55648;DHT22;45266;48.756;9.246;2023-04-30T03:28:35;10.20;99.90
55648;DHT22;45266;48.756;9.246;2023-04-30T03:29:37;10.20;99.90
55648;DHT22;45266;48.756;9.246;2023-04-30T03:30:39;10.10;99.90
55648;DHT22;45266;48.756;9.246;2023-04-30T03:31:41;10.10;99.90
55648;DHT22;45266;48.756;9.246;2023-04-30T03:32:43;10.10;99.90
55648;DHT22;45266;48.756;9.246;2023-04-30T03:33:45;10.10;99.90
55648;DHT22;45266;48.756;9.246;2023-04-30T03:34:46;10.10;99.90
55648;DHT22;45266;48.756;9.246;2023-04-30T03:35:48;10.10;99.90
55648;DHT22;45266;48.756;9.246;2023-04-30T03:36:51;10.10;99.90
55648;DHT22;45266;48.756;9.246;2023-04-30T03:37:52;10.10;99.90
55648;DHT22;45266;48.756;9.246;2023-04-30T03:38:54;10.00;99.90
55648;DHT22;45266;48.756;9.246;2023-04-30T03:39:56;10.00;99.90
55648;DHT22;45266;48.756;9.246;2023-04-30T03:40:58;10.00;99.90
55648;DHT22;45266;48.756;9.246;2023-04-30T03:41:59;10.00;99.90
55648;DHT22;45266;48.756;9.246;2023-04-30T03:43:04;10.00;99.90
55648;DHT22;45266;48.756;9.246;2023-04-30T03:44:06;10.00;99.90
55648;DHT22;45266;48.756;9.246;2023-04-30T03:45:15;10.00;99.90
55648;DHT22;45266;48.756;9.246;2023-04-30T03:46:17;10.00;99.90
55648;DHT22;45266;48.756;9.246;2023-04-30T03:47:19;10.00;99.90
55648;DHT22;45266;48.756;9.246;2023-04-30T03:48:21;10.00;99.90
55648;DHT22;45266;48.756;9.246;2023-04-30T03:49:23;10.00;99.90
55648;DHT22;45266;48.756;9.246;2023-04-30T03:50:24;9.90;99.90
55648;DHT22;45266;48.756;9.246;2023-04-30T03:51:26;10.00;99.90
55648;DHT22;45266;48.756;9.246;2023-04-30T03:52:29;9.90;99.90
55648;DHT22;45266;48.756;9.246;2023-04-30T03:53:31;10.00;99.90
55648;DHT22;45266;48.756;9.246;2023-04-30T03:54:33;9.90;99.90
55648;DHT22;45266;48.756;9.246;2023-04-30T03:55:35;9.90;99.90
55648;DHT22;45266;48.756;9.246;2023-04-30T03:56:37;10.00;99.90
55648;DHT22;45266;48.756;9.246;2023-04-30T03:57:39;9.90;99.90
55648;DHT22;45266;48.756;9.246;2023-04-30T03:58:41;9.90;99.90
55648;DHT22;45266;48.756;9.246;2023-04-30T03:59:43;9.90;99.90
55648;DHT22;45266;48.756;9.246;2023-04-30T04:00:45;9.90;99.90
55648;DHT22;45266;48.756;9.246;2023-04-30T04:01:48;10.00;99.90
55648;DHT22;45266;48.756;9.246;2023-04-30T04:02:50;10.00;99.90
55648;DHT22;45266;48.756;9.246;2023-04-30T04:03:52;9.90;99.90
55648;DHT22;45266;48.756;9.246;2023-04-30T04:04:54;10.10;99.90
55648;DHT22;45266;48.756;9.246;2023-04-30T04:05:56;9.90;99.90
55648;DHT22;45266;48.756;9.246;2023-04-30T04:06:58;9.90;99.90
55648;DHT22;45266;48.756;9.246;2023-04-30T04:08:00;9.90;99.90
55648;DHT22;45266;48.756;9.246;2023-04-30T04:09:02;9.90;99.90
55648;DHT22;45266;48.756;9.246;2023-04-30T04:10:05;9.90;99.90
55648;DHT22;45266;48.756;9.246;2023-04-30T04:11:08;9.90;99.90
55648;DHT22;45266;48.756;9.246;2023-04-30T04:12:10;9.90;99.90
55648;DHT22;45266;48.756;9.246;2023-04-30T04:13:12;9.80;99.90
55648;DHT22;45266;48.756;9.246;2023-04-30T04:14:14;9.90;99.90
55648;DHT22;45266;48.756;9.246;2023-04-30T04:15:17;9.90;99.90
55648;DHT22;45266;48.756;9.246;2023-04-30T04:16:19;9.90;99.90
55648;DHT22;45266;48.756;9.246;2023-04-30T04:17:21;9.90;99.90
55648;DHT22;45266;48.756;9.246;2023-04-30T04:18:22;9.90;99.90
55648;DHT22;45266;48.756;9.246;2023-04-30T04:19:25;9.90;99.90
55648;DHT22;45266;48.756;9.246;2023-04-30T04:20:27;10.00;99.90
55648;DHT22;45266;48.756;9.246;2023-04-30T04:21:30;9.90;99.90
55648;DHT22;45266;48.756;9.246;2023-04-30T04:22:32;9.90;99.90
55648;DHT22;45266;48.756;9.246;2023-04-30T04:23:33;9.90;99.90
55648;DHT22;45266;48.756;9.246;2023-04-30T04:24:35;9.80;99.90
55648;DHT22;45266;48.756;9.246;2023-04-30T04:25:38;9.90;99.90
55648;DHT22;45266;48.756;9.246;2023-04-30T04:26:42;9.80;99.90
55648;DHT22;45266;48.756;9.246;2023-04-30T04:27:43;9.90;99.90
55648;DHT22;45266;48.756;9.246;2023-04-30T04:28:45;9.90;99.90
55648;DHT22;45266;48.756;9.246;2023-04-30T04:29:48;9.80;99.90
55648;DHT22;45266;48.756;9.246;2023-04-30T04:30:50;9.90;99.90
55648;DHT22;45266;48.756;9.246;2023-04-30T04:31:53;9.90;99.90
55648;DHT22;45266;48.756;9.246;2023-04-30T04:32:56;9.90;99.90
55648;DHT22;45266;48.756;9.246;2023-04-30T04:33:59;9.90;99.90
55648;DHT22;45266;48.756;9.246;2023-04-30T04:35:01;9.90;99.90
55648;DHT22;45266;48.756;9.246;2023-04-30T04:36:03;9.90;99.90
55648;DHT22;45266;48.756;9.246;2023-04-30T04:37:04;9.90;99.90
55648;DHT22;45266;48.756;9.246;2023-04-30T04:38:06;9.90;99.90
55648;DHT22;45266;48.756;9.246;2023-04-30T04:39:08;9.90;99.90
55648;DHT22;45266;48.756;9.246;2023-04-30T04:40:10;9.90;99.90
55648;DHT22;45266;48.756;9.246;2023-04-30T04:41:12;9.90;99.90
55648;DHT22;45266;48.756;9.246;2023-04-30T04:42:15;9.90;99.90
55648;DHT22;45266;48.756;9.246;2023-04-30T04:43:20;9.90;99.90
55648;DHT22;45266;48.756;9.246;2023-04-30T04:44:22;9.90;99.90
55648;DHT22;45266;48.756;9.246;2023-04-30T04:45:24;9.90;99.90
55648;DHT22;45266;48.756;9.246;2023-04-30T04:46:27;9.90;99.90
55648;DHT22;45266;48.756;9.246;2023-04-30T04:47:30;9.90;99.90
55648;DHT22;45266;48.756;9.246;2023-04-30T04:48:32;9.90;99.90
55648;DHT22;45266;48.756;9.246;2023-04-30T04:49:33;9.90;99.90
55648;DHT22;45266;48.756;9.246;2023-04-30T04:50:35;9.90;99.90
55648;DHT22;45266;48.756;9.246;2023-04-30T04:51:37;9.90;99.90
55648;DHT22;45266;48.756;9.246;2023-04-30T04:52:40;9.90;99.90
55648;DHT22;45266;48.756;9.246;2023-04-30T04:53:41;9.90;99.90
55648;DHT22;45266;48.756;9.246;2023-04-30T04:54:43;10.00;99.90
55648;DHT22;45266;48.756;9.246;2023-04-30T04:55:45;10.00;99.90
55648;DHT22;45266;48.756;9.246;2023-04-30T04:56:47;9.90;99.90
55648;DHT22;45266;48.756;9.246;2023-04-30T04:57:49;9.90;99.90
55648;DHT22;45266;48.756;9.246;2023-04-30T04:58:50;9.90;99.90
55648;DHT22;45266;48.756;9.246;2023-04-30T04:59:52;9.90;99.90
55648;DHT22;45266;48.756;9.246;2023-04-30T05:00:54;9.90;99.90
55648;DHT22;45266;48.756;9.246;2023-04-30T05:01:57;9.90;99.90
55648;DHT22;45266;48.756;9.246;2023-04-30T05:02:59;9.90;99.90
55648;DHT22;45266;48.756;9.246;2023-04-30T05:04:01;9.90;99.90
55648;DHT22;45266;48.756;9.246;2023-04-30T05:05:03;9.90;99.90
55648;DHT22;45266;48.756;9.246;2023-04-30T05:06:05;9.90;99.90
55648;DHT22;45266;48.756;9.246;2023-04-30T05:07:07;10.00;99.90
55648;DHT22;45266;48.756;9.246;2023-04-30T05:08:08;10.00;99.90
55648;DHT22;45266;48.756;9.246;2023-04-30T05:09:10;10.00;99.90
55648;DHT22;45266;48.756;9.246;2023-04-30T05:10:12;9.90;99.90
55648;DHT22;45266;48.756;9.246;2023-04-30T05:11:14;9.90;99.90
55648;DHT22;45266;48.756;9.246;2023-04-30T05:12:16;9.90;99.90
55648;DHT22;45266;48.756;9.246;2023-04-30T05:13:18;9.90;99.90
55648;DHT22;45266;48.756;9.246;2023-04-30T05:14:20;10.00;99.90
55648;DHT22;45266;48.756;9.246;2023-04-30T05:15:21;10.00;99.90
55648;DHT22;45266;48.756;9.246;2023-04-30T05:16:23;10.00;99.90
55648;DHT22;45266;48.756;9.246;2023-04-30T05:17:25;10.10;99.90
55648;DHT22;45266;48.756;9.246;2023-04-30T05:18:27;10.10;99.90
55648;DHT22;45266;48.756;9.246;2023-04-30T05:19:29;10.10;99.90
55648;DHT22;45266;48.756;9.246;2023-04-30T05:20:31;10.20;99.90
55648;DHT22;45266;48.756;9.246;2023-04-30T05:21:32;10.10;99.90
55648;DHT22;45266;48.756;9.246;2023-04-30T05:22:34;10.10;99.90
55648;DHT22;45266;48.756;9.246;2023-04-30T05:23:36;10.10;99.90
55648;DHT22;45266;48.756;9.246;2023-04-30T05:24:38;10.20;99.90
55648;DHT22;45266;48.756;9.246;2023-04-30T05:25:39;10.20;99.90
55648;DHT22;45266;48.756;9.246;2023-04-30T05:26:41;10.20;99.90
55648;DHT22;45266;48.756;9.246;2023-04-30T05:27:43;10.40;99.90
55648;DHT22;45266;48.756;9.246;2023-04-30T05:28:45;10.30;99.90
55648;DHT22;45266;48.756;9.246;2023-04-30T05:29:47;10.30;99.90
55648;DHT22;45266;48.756;9.246;2023-04-30T05:30:49;10.30;99.90
55648;DHT22;45266;48.756;9.246;2023-04-30T05:31:50;10.30;99.90
55648;DHT22;45266;48.756;9.246;2023-04-30T05:32:52;10.50;99.90
55648;DHT22;45266;48.756;9.246;2023-04-30T05:33:54;10.40;99.90
55648;DHT22;45266;48.756;9.246;2023-04-30T05:34:56;10.40;99.90
55648;DHT22;45266;48.756;9.246;2023-04-30T05:35:57;10.40;99.90
55648;DHT22;45266;48.756;9.246;2023-04-30T05:36:59;10.50;99.90
55648;DHT22;45266;48.756;9.246;2023-04-30T05:38:02;10.50;99.90
55648;DHT22;45266;48.756;9.246;2023-04-30T05:39:04;10.50;99.90
55648;DHT22;45266;48.756;9.246;2023-04-30T05:40:07;10.50;99.90
55648;DHT22;45266;48.756;9.246;2023-04-30T05:41:11;10.50;99.90
55648;DHT22;45266;48.756;9.246;2023-04-30T05:42:13;10.40;99.90
55648;DHT22;45266;48.756;9.246;2023-04-30T05:43:15;10.60;99.90
55648;DHT22;45266;48.756;9.246;2023-04-30T05:44:17;10.70;99.90
55648;DHT22;45266;48.756;9.246;2023-04-30T05:45:19;10.70;99.90
55648;DHT22;45266;48.756;9.246;2023-04-30T05:46:20;10.70;99.90
55648;DHT22;45266;48.756;9.246;2023-04-30T05:47:22;10.80;99.90
55648;DHT22;45266;48.756;9.246;2023-04-30T05:48:24;10.80;99.90
55648;DHT22;45266;48.756;9.246;2023-04-30T05:49:26;10.80;99.90
55648;DHT22;45266;48.756;9.246;2023-04-30T05:50:28;10.90;99.90
55648;DHT22;45266;48.756;9.246;2023-04-30T05:51:30;10.90;99.90
55648;DHT22;45266;48.756;9.246;2023-04-30T05:52:33;11.00;99.90
55648;DHT22;45266;48.756;9.246;2023-04-30T05:53:34;11.00;99.90
55648;DHT22;45266;48.756;9.246;2023-04-30T05:54:36;11.00;99.90
55648;DHT22;45266;48.756;9.246;2023-04-30T05:55:38;11.10;99.90
55648;DHT22;45266;48.756;9.246;2023-04-30T05:56:40;11.10;99.90
55648;DHT22;45266;48.756;9.246;2023-04-30T05:57:42;11.10;99.90
55648;DHT22;45266;48.756;9.246;2023-04-30T05:58:43;11.20;99.90
55648;DHT22;45266;48.756;9.246;2023-04-30T05:59:45;11.20;99.90
55648;DHT22;45266;48.756;9.246;2023-04-30T06:00:50;11.20;99.90
55648;DHT22;45266;48.756;9.246;2023-04-30T06:01:52;11.30;99.90
55648;DHT22;45266;48.756;9.246;2023-04-30T06:02:54;11.30;99.90
55648;DHT22;45266;48.756;9.246;2023-04-30T06:03:56;11.40;99.90
55648;DHT22;45266;48.756;9.246;2023-04-30T06:04:59;11.40;99.90
55648;DHT22;45266;48.756;9.246;2023-04-30T06:06:03;11.40;99.90
55648;DHT22;45266;48.756;9.246;2023-04-30T06:07:05;11.50;99.90
55648;DHT22;45266;48.756;9.246;2023-04-30T06:08:06;11.60;99.90
55648;DHT22;45266;48.756;9.246;2023-04-30T06:09:08;11.60;99.90
55648;DHT22;45266;48.756;9.246;2023-04-30T06:10:11;11.70;99.90
55648;DHT22;45266;48.756;9.246;2023-04-30T06:11:13;11.70;99.90
55648;DHT22;45266;48.756;9.246;2023-04-30T06:12:15;11.80;99.90
55648;DHT22;45266;48.756;9.246;2023-04-30T06:13:17;11.80;99.90
55648;DHT22;45266;48.756;9.246;2023-04-30T06:14:19;11.90;99.90
55648;DHT22;45266;48.756;9.246;2023-04-30T06:15:23;11.90;99.90
55648;DHT22;45266;48.756;9.246;2023-04-30T06:16:25;11.90;99.90
55648;DHT22;45266;48.756;9.246;2023-04-30T06:17:26;12.00;99.90
55648;DHT22;45266;48.756;9.246;2023-04-30T06:18:28;12.00;99.90
55648;DHT22;45266;48.756;9.246;2023-04-30T06:19:30;11.90;99.90
55648;DHT22;45266;48.756;9.246;2023-04-30T06:20:32;12.10;99.90
55648;DHT22;45266;48.756;9.246;2023-04-30T06:21:33;12.10;99.90
55648;DHT22;45266;48.756;9.246;2023-04-30T06:22:35;12.10;99.90
55648;DHT22;45266;48.756;9.246;2023-04-30T06:23:37;12.20;99.90
55648;DHT22;45266;48.756;9.246;2023-04-30T06:24:39;12.20;99.90
55648;DHT22;45266;48.756;9.246;2023-04-30T06:25:41;12.20;99.90
55648;DHT22;45266;48.756;9.246;2023-04-30T06:26:43;12.30;99.90
55648;DHT22;45266;48.756;9.246;2023-04-30T06:27:44;12.30;99.90
55648;DHT22;45266;48.756;9.246;2023-04-30T06:28:46;12.40;99.90
55648;DHT22;45266;48.756;9.246;2023-04-30T06:29:48;12.50;99.90
55648;DHT22;45266;48.756;9.246;2023-04-30T06:30:51;12.50;99.90
55648;DHT22;45266;48.756;9.246;2023-04-30T06:31:54;12.70;99.90
55648;DHT22;45266;48.756;9.246;2023-04-30T06:32:56;12.70;99.90
55648;DHT22;45266;48.756;9.246;2023-04-30T06:33:58;12.70;99.90
55648;DHT22;45266;48.756;9.246;2023-04-30T06:35:00;12.80;99.90
55648;DHT22;45266;48.756;9.246;2023-04-30T06:36:02;12.80;99.90
55648;DHT22;45266;48.756;9.246;2023-04-30T06:37:03;12.80;99.90
55648;DHT22;45266;48.756;9.246;2023-04-30T06:38:05;12.90;99.90
55648;DHT22;45266;48.756;9.246;2023-04-30T06:39:07;12.80;99.90
55648;DHT22;45266;48.756;9.246;2023-04-30T06:40:09;12.90;99.90
55648;DHT22;45266;48.756;9.246;2023-04-30T06:41:11;12.90;99.90
55648;DHT22;45266;48.756;9.246;2023-04-30T06:42:13;12.90;99.90
55648;DHT22;45266;48.756;9.246;2023-04-30T06:43:16;12.90;99.90
55648;DHT22;45266;48.756;9.246;2023-04-30T06:44:17;13.00;99.90
55648;DHT22;45266;48.756;9.246;2023-04-30T06:45:19;13.00;99.90
55648;DHT22;45266;48.756;9.246;2023-04-30T06:46:21;13.00;99.90
55648;DHT22;45266;48.756;9.246;2023-04-30T06:47:26;13.10;99.90
55648;DHT22;45266;48.756;9.246;2023-04-30T06:48:28;13.10;99.90
55648;DHT22;45266;48.756;9.246;2023-04-30T06:49:29;13.20;99.90
55648;DHT22;45266;48.756;9.246;2023-04-30T06:50:31;13.20;99.90
55648;DHT22;45266;48.756;9.246;2023-04-30T06:51:33;13.30;99.90
55648;DHT22;45266;48.756;9.246;2023-04-30T06:52:35;13.40;99.90
55648;DHT22;45266;48.756;9.246;2023-04-30T06:53:36;13.50;99.90
55648;DHT22;45266;48.756;9.246;2023-04-30T06:54:38;13.60;99.90
55648;DHT22;45266;48.756;9.246;2023-04-30T06:55:40;13.60;99.90